Boyle, Canada
Current Conditions -  °F | °C
As of 7:26 PM on Saturday 22 Nov 2014 (Local Time) from CYED Reporting Station
Overcast Overcast  
Wind Chill: 11°   Ceiling: 3300
Heat Index: 21°   Visibility: 5mi
Dew Point: 18°   Wind: 9mph
Humidity: 86%   Direction: 320°NW
Pressure: 29.53"   Gusts: NA
Location:  54.59°N, 112.81°W
Report Text: CYED 230226Z AUTO 32008KT 5SM OVC033 M06/M08 A2953
Loading
Personal Weather Stations






























Interactive Weather Map New forecast layout! Learn more

10-Day Weather Forecast

Advertisements
Track Severe Weather on mobile